Main page
METAR-TAF:

METAR-TAF

Airports :

Maputo, Mozambique

Maputo International Airport

latitude: 25-55S, longitude: 032-34E, elevation: 39 m

Current weather observation

The report was made 1 hour and 8 minutes ago, at 18:00 UTC
Wind 9 kt from the East
Temperature 25°C
Humidity 69%
Pressure 1012 hPa
Visibility 10 km or more
Few clouds at a height of 2000 ft

METAR: FQMA 191800Z 09009KT 9999 FEW020 25/19 Q1012 NOSIG

Time: 21:08 (19:08 UTC)

Forecast

The report was made 9 hours and 8 minutes ago, at 10:00 UTC
Forecast valid from 19 at 12 UTC to 20 at 18 UTC
Wind 10 kt from the East
Visibility 10 km or more
Few clouds at a height of 2000 ft
Becoming
from 19 at 18 UTC to 19 at 20 UTC
Wind 12 kt from the Southwest
Becoming
from 20 at 06 UTC to 20 at 08 UTC
Wind 11 kt from the North/Northwest

TAF: FQMA 191000Z 1912/2018 10010KT 9999 FEW020 BECMG 1918/1920 22012KT BECMG 2006/2008 34011KT TX31/1913Z TN23/2003Z

Weather observations and forecasts of more than 4000 airports (METAR and TAF reports).

The available stations are represented by yellow and red dots on the map.

Hover mouse over dot to see the name of the station.

Then click to see weather observations and forecasts.

To change the map : click on the green buttons with a black cross to zoom in, on the green button with a dash to zoom out, or on the green arrows for adjacent maps.


METAR-TAF: